Time;durP1;ratioP1;P1;durP2;ratioP2;P2;SDS_P1;SDS_P2;PMS_P1;PMS_P2;Temp;Humidity;BMP_temperature;BMP_pressure;BME280_temperature;BME280_humidity;BME280_pressure;Samples;Min_cycle;Max_cycle;Signal;HPM_P1;HPM_P2
2021/09/08 00:04:08;;;;;;;11.95;4.63;;;;;;;15.74;64.07;93205.69;4883578;29;20498;-92
2021/09/08 00:07:44;;;;;;;;;;;;;;;;;;;;;
2021/09/08 00:20:54;;;;;;;9.02;4.05;;;;;;;16.24;63.59;93248.53;4862342;29;20067;-92
2021/09/08 00:24:10;;;;;;;;;;;;;;;;;;;;;
2021/09/08 00:27:09;;;;;;;;;;;;;;;;;;;;;
2021/09/08 00:30:55;;;;;;;;;;;;;;;;;;;;;
2021/09/08 00:34:12;;;;;;;6.45;3.90;;;;;;;16.12;63.66;93205.25;4882191;29;20503;-92
2021/09/08 00:37:15;;;;;;;5.97;3.58;;;;;;;15.94;63.54;93191.97;4862735;29;20109;-93
2021/09/08 00:43:49;;;;;;;;;;;;;;;;;;;;;
2021/09/08 00:46:54;;;;;;;7.75;4.40;;;;;;;15.89;63.25;93181.53;4888119;29;20049;-92
2021/09/08 00:50:05;;;;;;;;;;;;;;;;;;;;;
2021/09/08 00:57:04;;;;;;;7.22;4.10;;;;;;;15.99;63.75;93204.28;4836542;29;20072;-92
2021/09/08 01:04:19;;;;;;;;;;;;;;;;;;;;;
2021/09/08 01:07:37;;;;;;;6.32;2.88;;;;;;;15.79;63.56;93181.78;4878493;29;20054;-92
2021/09/08 01:17:52;;;;;;;;;;;;;;;;;;;;;
2021/09/08 01:25:03;;;;;;;5.68;3.38;;;;;;;15.75;63.19;93186.09;4887556;29;20064;-92
2021/09/08 01:28:30;;;;;;;5.60;3.03;;;;;;;15.88;63.31;93203.75;4874237;29;20056;-92
2021/09/08 01:35:37;;;;;;;4.70;2.70;;;;;;;15.96;63.22;93224.16;4874361;29;20109;-93
2021/09/08 01:39:16;;;;;;;6.88;3.17;;;;;;;15.69;63.63;93188.03;4840802;29;20548;-93
2021/09/08 01:42:44;;;;;;;4.33;2.53;;;;;;;15.90;63.76;93220.06;4822233;29;20088;-92
2021/09/08 01:53:07;;;;;;;;;;;;;;;;;;;;;
2021/09/08 02:03:31;;;;;;;6.78;3.25;;;;;;;15.55;63.13;93164.34;4834434;29;20053;-92
2021/09/08 02:06:58;;;;;;;;;;;;;;;;;;;;;
2021/09/08 02:14:58;;;;;;;;;;;;;;;;;;;;;
2021/09/08 02:25:13;;;;;;;;;;;;;;;;;;;;;
2021/09/08 02:28:20;;;;;;;;;;;;;;;;;;;;;
2021/09/08 02:31:53;;;;;;;;;;;;;;;;;;;;;
2021/09/08 02:35:07;;;;;;;4.88;2.83;;;;;;;15.70;63.00;93180.94;4837136;29;20134;-92
2021/09/08 02:38:19;;;;;;;7.85;2.90;;;;;;;15.66;62.75;93169.41;4842080;29;20062;-92
2021/09/08 02:41:30;;;;;;;;;;;;;;;;;;;;;
2021/09/08 02:58:11;;;;;;;;;;;;;;;;;;;;;
2021/09/08 03:01:49;;;;;;;5.82;3.03;;;;;;;15.97;62.93;93196.66;4848944;29;20064;-91
2021/09/08 03:13:35;;;;;;;;;;;;;;;;;;;;;
2021/09/08 03:27:04;;;;;;;4.95;2.72;;;;;;;15.76;63.24;93159.41;4788061;29;20046;-92
2021/09/08 03:30:04;;;;;;;5.85;2.90;;;;;;;15.98;63.08;93190.28;4791217;29;20504;-92
2021/09/08 03:33:30;;;;;;;;;;;;;;;;;;;;;
2021/09/08 03:36:53;;;;;;;5.78;3.08;;;;;;;15.95;63.16;93190.88;4818439;29;20058;-92
2021/09/08 03:40:39;;;;;;;5.75;2.72;;;;;;;15.98;63.03;93192.91;4862114;29;20049;-92
2021/09/08 03:47:57;;;;;;;;;;;;;;;;;;;;;
2021/09/08 03:51:57;;;;;;;;;;;;;;;;;;;;;
2021/09/08 03:58:25;;;;;;;;;;;;;;;;;;;;;
2021/09/08 04:08:21;;;;;;;6.07;2.92;;;;;;;16.07;64.67;93210.69;4862331;29;20534;-93
2021/09/08 04:18:22;;;;;;;;;;;;;;;;;;;;;
2021/09/08 04:25:33;;;;;;;6.00;3.58;;;;;;;15.83;61.67;93166.91;4839185;29;20071;-91
2021/09/08 04:29:08;;;;;;;6.63;3.83;;;;;;;15.82;61.61;93157.41;4863845;29;20049;-92
2021/09/08 04:32:52;;;;;;;7.30;3.90;;;;;;;15.84;61.23;93154.50;4833762;29;20082;-92
2021/09/08 04:36:27;;;;;;;7.13;3.92;;;;;;;15.85;61.42;93156.84;4874787;29;20060;-94
2021/09/08 04:39:31;;;;;;;;;;;;;;;;;;;;;
2021/09/08 04:42:39;;;;;;;4.93;3.22;;;;;;;15.95;61.76;93177.69;4868279;29;20045;-92
2021/09/08 04:48:50;;;;;;;5.72;3.70;;;;;;;16.12;62.02;93207.91;4782002;29;20310;-96
2021/09/08 04:52:15;;;;;;;;;;;;;;;;;;;;;
2021/09/08 05:02:29;;;;;;;;;;;;;;;;;;;;;
2021/09/08 05:13:48;;;;;;;;;;;;;;;;;;;;;
2021/09/08 05:23:52;;;;;;;;;;;;;;;;;;;;;
2021/09/08 05:27:23;;;;;;;;;;;;;;;;;;;;;
2021/09/08 05:43:07;;;;;;;;;;;;;;;;;;;;;
2021/09/08 05:50:16;;;;;;;;;;;;;;;;;;;;;
2021/09/08 06:18:31;;;;;;;;;;;;;;;;;;;;;
2021/09/08 06:38:30;;;;;;;;;;;;;;;;;;;;;
2021/09/08 06:46:12;;;;;;;;;;;;;;;;;;;;;
2021/09/08 06:57:05;;;;;;;;;;;;;;;;;;;;;
2021/09/08 07:19:57;;;;;;;7.28;3.67;;;;;;;18.33;61.07;93165.22;4666472;30;20502;-96
2021/09/08 07:26:59;;;;;;;7.65;3.25;;;;;;;20.58;55.75;93168.09;4782746;30;20055;-94
2021/09/08 07:30:53;;;;;;;;;;;;;;;;;;;;;
2021/09/08 07:34:30;;;;;;;;;;;;;;;;;;;;;
2021/09/08 07:38:00;;;;;;;;;;;;;;;;;;;;;
2021/09/08 08:41:33;;;;;;;;;;;;;;;;;;;;;
2021/09/08 08:45:07;;;;;;;4.93;2.95;;;;;;;21.20;45.73;93237.28;4800283;29;20060;-91
2021/09/08 08:52:04;;;;;;;4.13;2.38;;;;;;;21.48;44.48;93215.28;4797736;29;20505;-91
2021/09/08 08:54:56;;;;;;;18.13;2.83;;;;;;;21.31;43.18;93185.13;4755991;30;20051;-92
2021/09/08 08:58:06;;;;;;;;;;;;;;;;;;;;;
2021/09/08 09:01:40;;;;;;;5.25;3.15;;;;;;;22.17;43.78;93238.16;4776285;29;20055;-91
2021/09/08 09:05:04;;;;;;;;;;;;;;;;;;;;;
2021/09/08 09:08:24;;;;;;;;;;;;;;;;;;;;;
2021/09/08 09:11:19;;;;;;;;;;;;;;;;;;;;;
2021/09/08 09:14:31;;;;;;;;;;;;;;;;;;;;;
2021/09/08 09:17:26;;;;;;;4.85;2.92;;;;;;;25.47;37.04;93217.50;4843329;29;20046;-92
2021/09/08 09:24:27;;;;;;;6.13;3.22;;;;;;;23.14;41.37;93175.78;4816530;29;20493;-93
2021/09/08 09:27:39;;;;;;;;;;;;;;;;;;;;;
2021/09/08 09:30:53;;;;;;;;;;;;;;;;;;;;;
2021/09/08 09:34:21;;;;;;;4.22;2.63;;;;;;;23.40;39.97;93180.53;4839080;29;20115;-91
2021/09/08 09:44:33;;;;;;;;;;;;;;;;;;;;;
2021/09/08 09:51:06;;;;;;;4.10;2.35;;;;;;;21.91;42.07;93190.66;4840412;29;20454;-92
2021/09/08 10:01:44;;;;;;;6.07;2.72;;;;;;;21.31;44.96;93211.75;4820872;29;20050;-92
2021/09/08 10:05:06;;;;;;;4.97;2.58;;;;;;;21.57;44.50;93202.63;4796753;29;20062;-92
2021/09/08 10:08:11;;;;;;;3.72;2.30;;;;;;;21.36;42.40;93168.91;4812919;29;20046;-91
2021/09/08 10:11:20;;;;;;;5.22;2.85;;;;;;;21.18;43.49;93168.38;4809360;29;20500;-92
2021/09/08 10:14:45;;;;;;;;;;;;;;;;;;;;;
2021/09/08 10:18:40;;;;;;;;;;;;;;;;;;;;;
2021/09/08 10:21:48;;;;;;;;;;;;;;;;;;;;;
2021/09/08 10:25:16;;;;;;;;;;;;;;;;;;;;;
2021/09/08 10:28:41;;;;;;;;;;;;;;;;;;;;;
2021/09/08 10:31:51;;;;;;;6.88;2.90;;;;;;;21.38;44.04;93166.69;4824343;29;20519;-91
2021/09/08 10:35:16;;;;;;;4.88;2.50;;;;;;;21.57;43.97;93205.28;4835055;29;20738;-91
2021/09/08 10:38:25;;;;;;;;;;;;;;;;;;;;;
2021/09/08 10:41:47;;;;;;;3.20;2.00;;;;;;;20.50;43.99;93153.00;4831921;29;20091;-90
2021/09/08 10:45:08;;;;;;;4.13;2.33;;;;;;;20.76;44.01;93159.88;4805368;29;20055;-90
2021/09/08 10:48:40;;;;;;;3.72;2.33;;;;;;;20.93;43.52;93198.81;4813957;29;20397;-92
2021/09/08 10:51:45;;;;;;;;;;;;;;;;;;;;;
2021/09/08 10:55:24;;;;;;;6.70;2.42;;;;;;;20.97;44.31;93168.53;4834920;29;20045;-91
2021/09/08 10:58:52;;;;;;;6.82;2.85;;;;;;;20.81;42.60;93154.38;4835122;29;20045;-92
2021/09/08 11:05:33;;;;;;;5.82;2.95;;;;;;;21.11;43.98;93138.13;4812228;29;20046;-91
2021/09/08 11:09:04;;;;;;;;;;;;;;;;;;;;;
2021/09/08 11:11:59;;;;;;;4.85;2.95;;;;;;;21.15;44.64;93190.38;4850783;29;20057;-91
2021/09/08 11:15:08;;;;;;;;;;;;;;;;;;;;;
2021/09/08 11:21:11;;;;;;;3.78;2.10;;;;;;;20.65;45.80;93142.81;4827993;29;20050;-92
2021/09/08 11:24:28;;;;;;;6.32;3.22;;;;;;;20.80;46.51;93136.84;4822444;29;20050;-91
2021/09/08 11:27:29;;;;;;;5.03;2.65;;;;;;;20.76;45.57;93155.38;4834935;29;20053;-90
2021/09/08 11:30:53;;;;;;;4.00;2.40;;;;;;;20.79;46.17;93146.72;4839951;29;20057;-91
2021/09/08 11:34:03;;;;;;;4.32;2.83;;;;;;;20.88;46.89;93143.94;4827123;29;20094;-91
2021/09/08 11:37:07;;;;;;;5.97;2.92;;;;;;;20.84;46.12;93150.25;4812414;29;20123;-91
2021/09/08 11:40:14;;;;;;;4.35;2.55;;;;;;;21.36;44.17;93144.94;4825783;29;20057;-92
2021/09/08 11:46:55;;;;;;;4.57;2.60;;;;;;;21.78;44.76;93139.28;4859168;29;20045;-91
2021/09/08 11:50:34;;;;;;;;;;;;;;;;;;;;;
2021/09/08 11:54:03;;;;;;;;;;;;;;;;;;;;;
2021/09/08 11:56:46;;;;;;;5.10;2.78;;;;;;;23.26;41.00;93140.97;4863815;29;20057;-91
2021/09/08 12:00:08;;;;;;;4.35;2.95;;;;;;;23.38;40.08;93135.47;4864523;29;20101;-91
2021/09/08 12:06:28;;;;;;;6.43;3.42;;;;;;;23.76;40.56;93131.28;4874074;29;20045;-91
2021/09/08 12:16:30;;;;;;;5.18;2.88;;;;;;;23.49;41.37;93128.44;4782756;30;20089;-90
2021/09/08 12:19:51;;;;;;;;;;;;;;;;;;;;;
2021/09/08 12:26:41;;;;;;;6.68;4.00;;;;;;;22.43;43.22;93109.72;4859181;29;20109;-92
2021/09/08 12:30:00;;;;;;;8.77;3.92;;;;;;;22.96;43.57;93152.09;4879170;29;20185;-92
2021/09/08 12:33:28;;;;;;;5.55;3.42;;;;;;;22.63;43.16;93139.91;4857092;29;20053;-91
2021/09/08 12:40:35;;;;;;;;;;;;;;;;;;;;;
2021/09/08 12:44:01;;;;;;;6.65;3.03;;;;;;;21.97;43.88;93129.84;4861876;29;20061;-91
2021/09/08 12:46:58;;;;;;;5.75;3.50;;;;;;;21.67;44.45;93071.63;4843583;29;20448;-90
2021/09/08 12:49:54;;;;;;;;;;;;;;;;;;;;;
2021/09/08 12:56:18;;;;;;;4.43;2.78;;;;;;;21.29;44.68;93088.81;4848118;29;20508;-91
2021/09/08 12:59:14;;;;;;;6.40;3.75;;;;;;;21.04;45.72;93080.16;4815284;29;20526;-90
2021/09/08 13:05:56;;;;;;;4.18;2.65;;;;;;;21.35;45.75;93135.41;4843682;29;20442;-91
2021/09/08 13:12:15;;;;;;;5.65;3.50;;;;;;;20.47;48.19;93071.22;4850224;29;20504;-91
2021/09/08 13:15:34;;;;;;;6.10;3.28;;;;;;;20.70;45.87;93062.81;4860302;29;20049;-92
2021/09/08 13:21:42;;;;;;;;;;;;;;;;;;;;;
2021/09/08 13:24:46;;;;;;;7.03;3.05;;;;;;;20.75;48.51;93067.91;4842961;29;20076;-92
2021/09/08 13:27:45;;;;;;;;;;;;;;;;;;;;;
2021/09/08 13:30:42;;;;;;;;;;;;;;;;;;;;;
2021/09/08 13:34:18;;;;;;;5.75;3.40;;;;;;;20.83;49.71;93076.84;4834447;29;20054;-91
2021/09/08 13:37:26;;;;;;;;;;;;;;;;;;;;;
2021/09/08 13:41:08;;;;;;;7.40;3.40;;;;;;;20.88;49.68;93077.41;4851666;29;20058;-91
2021/09/08 13:54:34;;;;;;;;;;;;;;;;;;;;;
2021/09/08 14:05:13;;;;;;;;;;;;;;;;;;;;;
2021/09/08 14:12:02;;;;;;;;;;;;;;;;;;;;;
2021/09/08 14:15:14;;;;;;;;;;;;;;;;;;;;;
2021/09/08 14:28:29;;;;;;;5.57;3.45;;;;;;;20.80;54.19;93062.34;4840900;29;20062;-91
2021/09/08 14:31:38;;;;;;;;;;;;;;;;;;;;;
2021/09/08 14:34:52;;;;;;;7.55;3.40;;;;;;;20.33;52.97;93023.72;4829029;29;20404;-91
2021/09/08 14:38:26;;;;;;;6.97;3.40;;;;;;;20.71;53.33;93033.19;4842120;29;20141;-91
2021/09/08 14:41:25;;;;;;;6.88;3.60;;;;;;;20.73;53.06;93022.22;4777425;30;20066;-92
2021/09/08 14:54:28;;;;;;;;;;;;;;;;;;;;;
2021/09/08 15:02:02;;;;;;;;;;;;;;;;;;;;;
2021/09/08 15:13:42;;;;;;;;;;;;;;;;;;;;;
2021/09/08 16:48:37;;;;;;;;;;;;;;;;;;;;;
2021/09/08 16:52:38;;;;;;;;;;;;;;;;;;;;;
2021/09/08 16:56:20;;;;;;;;;;;;;;;;;;;;;
2021/09/08 17:03:05;;;;;;;;;;;;;;;;;;;;;
2021/09/08 17:14:56;;;;;;;;;;;;;;;;;;;;;
2021/09/08 17:21:43;;;;;;;7.45;3.40;;;;;;;18.52;64.48;92972.88;4803470;29;20054;-77
2021/09/08 17:24:08;;;;;;;5.55;3.53;;;;;;;18.45;64.81;92972.63;4807996;29;20486;-77
2021/09/08 17:26:34;;;;;;;7.32;3.83;;;;;;;18.42;64.57;92967.97;4807560;29;20043;-77
2021/09/08 17:29:00;;;;;;;7.32;4.35;;;;;;;18.40;64.02;92969.41;4808099;29;20055;-78
2021/09/08 17:31:26;;;;;;;7.40;3.67;;;;;;;18.44;63.93;92971.09;4807444;29;20411;-77
2021/09/08 17:33:53;;;;;;;6.10;3.50;;;;;;;18.36;64.14;92966.63;4802382;29;20054;-78
2021/09/08 17:36:19;;;;;;;6.15;3.58;;;;;;;18.25;64.46;92968.84;4801601;29;20058;-78
2021/09/08 17:38:46;;;;;;;6.93;4.38;;;;;;;18.13;64.67;92962.72;4805336;29;20137;-78
2021/09/08 17:43:40;;;;;;;6.50;3.55;;;;;;;18.06;65.35;92966.66;4801905;29;20061;-78
2021/09/08 17:46:08;;;;;;;6.78;3.85;;;;;;;18.01;65.34;92964.19;4804389;29;20076;-78
2021/09/08 17:48:35;;;;;;;5.65;3.47;;;;;;;17.96;65.33;92967.00;4806346;29;20398;-77
2021/09/08 17:51:02;;;;;;;7.28;3.70;;;;;;;17.91;65.32;92961.91;4787393;29;20047;-78
2021/09/08 17:53:27;;;;;;;6.57;3.80;;;;;;;17.85;65.65;92966.59;4803223;29;20062;-78
2021/09/08 17:55:55;;;;;;;7.63;3.67;;;;;;;17.78;65.19;92968.16;4806990;29;20053;-78
2021/09/08 17:58:21;;;;;;;6.25;3.75;;;;;;;17.68;64.93;92962.13;4802785;29;20054;-77
2021/09/08 18:00:48;;;;;;;7.90;3.60;;;;;;;17.64;64.77;92963.09;4804000;29;20563;-78
2021/09/08 18:03:14;;;;;;;6.20;3.55;;;;;;;17.62;64.15;92973.97;4805045;29;20131;-78
2021/09/08 18:05:41;;;;;;;6.47;3.33;;;;;;;17.56;64.00;92969.97;4806863;29;20047;-78
2021/09/08 18:08:06;;;;;;;5.03;3.22;;;;;;;17.54;63.56;92974.00;4804902;29;20061;-78
2021/09/08 18:10:33;;;;;;;6.45;3.65;;;;;;;17.44;63.04;92977.78;4804980;29;20038;-78
2021/09/08 18:13:01;;;;;;;6.88;3.53;;;;;;;17.36;62.52;92970.63;4807054;29;20121;-77
2021/09/08 18:15:27;;;;;;;7.03;4.03;;;;;;;17.33;62.20;92974.69;4790086;29;20109;-78
2021/09/08 18:17:56;;;;;;;5.03;3.25;;;;;;;17.27;61.69;92983.91;4806748;29;20050;-78
2021/09/08 18:20:21;;;;;;;8.52;3.75;;;;;;;17.21;61.20;92978.00;4817827;29;20062;-77
2021/09/08 18:22:49;;;;;;;6.88;3.67;;;;;;;17.21;61.13;92980.66;4807858;29;20060;-78
2021/09/08 18:25:17;;;;;;;6.53;3.50;;;;;;;17.19;60.81;92988.13;4822032;29;20497;-78
2021/09/08 18:27:43;;;;;;;5.53;3.28;;;;;;;17.15;60.84;92981.91;4825415;29;20038;-78
2021/09/08 18:30:11;;;;;;;6.72;4.00;;;;;;;17.10;60.79;92982.06;4824678;29;20054;-78
2021/09/08 18:32:38;;;;;;;5.45;3.42;;;;;;;17.11;60.60;92980.19;4822731;29;20563;-78
2021/09/08 18:35:06;;;;;;;8.52;4.07;;;;;;;17.10;60.69;92976.78;4806650;29;20081;-77
2021/09/08 18:37:31;;;;;;;8.80;3.55;;;;;;;17.08;60.17;92992.19;4807713;29;20088;-77
2021/09/08 18:39:58;;;;;;;5.05;2.95;;;;;;;17.04;60.05;92996.53;4824302;29;20111;-78
2021/09/08 18:42:25;;;;;;;5.78;3.03;;;;;;;16.96;59.86;92989.41;4812656;29;20046;-78
2021/09/08 18:44:53;;;;;;;6.43;3.63;;;;;;;16.99;59.68;92997.47;4818896;29;20043;-78
2021/09/08 18:47:20;;;;;;;7.57;3.40;;;;;;;16.96;59.64;92990.19;4821996;29;20429;-78
2021/09/08 18:49:47;;;;;;;6.22;3.30;;;;;;;16.92;60.00;92993.78;4824031;29;20106;-78
2021/09/08 18:52:14;;;;;;;9.73;3.65;;;;;;;16.84;59.86;92988.19;4824005;29;20046;-78
2021/09/08 18:54:41;;;;;;;6.32;3.55;;;;;;;16.82;60.21;92986.94;4823394;29;20505;-79
2021/09/08 18:57:06;;;;;;;5.43;3.10;;;;;;;16.73;60.53;92986.91;4813135;29;20049;-77
2021/09/08 18:59:32;;;;;;;4.60;2.97;;;;;;;16.72;60.62;92990.63;4819417;29;20422;-77
2021/09/08 19:01:57;;;;;;;6.63;3.45;;;;;;;16.69;60.56;92991.25;4821795;29;20061;-77
2021/09/08 19:04:27;;;;;;;5.15;3.00;;;;;;;16.65;60.68;92995.63;4819523;29;20065;-77
2021/09/08 19:06:54;;;;;;;6.07;3.67;;;;;;;16.60;60.70;92998.41;4821287;29;20053;-78
2021/09/08 19:09:21;;;;;;;6.45;3.80;;;;;;;16.53;60.73;92998.88;4810825;29;20054;-76
2021/09/08 19:11:48;;;;;;;6.07;3.60;;;;;;;16.51;60.69;93001.06;4821862;29;20047;-77
2021/09/08 19:14:14;;;;;;;9.13;4.05;;;;;;;16.45;60.63;93004.94;4823922;29;20077;-77
2021/09/08 19:16:41;;;;;;;5.53;3.33;;;;;;;16.41;60.84;93001.34;4823193;29;20054;-77
2021/09/08 19:19:06;;;;;;;6.75;3.33;;;;;;;16.38;61.16;93005.38;4821898;29;20054;-77
2021/09/08 19:21:32;;;;;;;5.32;3.17;;;;;;;16.36;60.92;92998.84;4843138;29;20133;-77
2021/09/08 19:23:58;;;;;;;5.65;2.97;;;;;;;16.32;61.29;93003.97;4825406;29;20060;-77
2021/09/08 19:26:23;;;;;;;6.35;3.30;;;;;;;16.28;61.51;93005.69;4841751;29;20046;-77
2021/09/08 19:28:49;;;;;;;5.53;3.13;;;;;;;16.28;61.39;93003.06;4839065;29;20050;-77
2021/09/08 19:31:14;;;;;;;6.82;3.20;;;;;;;16.24;61.56;93002.88;4819066;29;20058;-77
2021/09/08 19:33:40;;;;;;;5.05;3.05;;;;;;;16.20;61.61;93006.44;4832948;29;20120;-77
2021/09/08 19:36:11;;;;;;;6.35;3.35;;;;;;;16.16;61.48;93010.78;4799017;29;20037;-77
2021/09/08 19:38:40;;;;;;;5.53;2.90;;;;;;;16.16;61.71;93005.50;4837188;29;20477;-77
2021/09/08 19:41:06;;;;;;;5.20;3.10;;;;;;;16.14;61.69;93007.66;4837892;29;20053;-77
2021/09/08 19:43:31;;;;;;;6.05;2.70;;;;;;;16.12;61.70;93004.56;4840676;29;20057;-77
2021/09/08 19:45:57;;;;;;;6.78;3.28;;;;;;;16.09;61.50;93013.09;4821814;29;20480;-77
2021/09/08 19:48:23;;;;;;;4.63;2.83;;;;;;;16.03;61.65;93013.25;4823107;29;20050;-77
2021/09/08 19:50:49;;;;;;;6.65;3.13;;;;;;;16.03;61.70;93018.53;4838636;29;20046;-77
2021/09/08 19:53:14;;;;;;;6.35;3.17;;;;;;;16.02;61.60;93024.88;4823505;29;20042;-77
2021/09/08 19:55:40;;;;;;;4.85;3.00;;;;;;;15.99;61.56;93022.88;4831607;29;20626;-77
2021/09/08 19:58:05;;;;;;;5.47;3.10;;;;;;;15.99;61.48;93022.09;4829607;29;20114;-77
2021/09/08 20:00:31;;;;;;;4.90;3.00;;;;;;;15.99;61.56;93025.50;4831194;29;20069;-77
2021/09/08 20:02:57;;;;;;;5.25;3.03;;;;;;;15.97;61.40;93019.75;4802198;29;20394;-77
2021/09/08 20:05:23;;;;;;;5.32;3.38;;;;;;;15.98;61.22;93021.28;4817744;29;20046;-77
2021/09/08 20:07:49;;;;;;;5.72;3.35;;;;;;;15.98;61.08;93016.00;4830129;29;20116;-77
2021/09/08 20:10:15;;;;;;;4.68;3.13;;;;;;;15.98;60.90;93021.28;4833622;29;20102;-77
2021/09/08 20:12:42;;;;;;;7.18;3.65;;;;;;;15.97;60.62;93013.69;4834376;29;20049;-77
2021/09/08 20:15:10;;;;;;;5.65;3.42;;;;;;;16.00;60.66;93015.72;4831618;29;20108;-76
2021/09/08 20:17:37;;;;;;;6.75;3.40;;;;;;;16.03;60.67;93018.53;4831779;29;20069;-76
2021/09/08 20:20:04;;;;;;;5.55;3.30;;;;;;;16.01;60.45;93019.94;4827386;29;20063;-77
2021/09/08 20:22:30;;;;;;;5.85;3.05;;;;;;;16.03;60.54;93018.53;4814445;29;20073;-77
2021/09/08 20:24:55;;;;;;;9.52;3.08;;;;;;;16.02;60.70;93021.47;4829801;29;20046;-77
2021/09/08 20:27:21;;;;;;;5.20;3.20;;;;;;;16.02;60.96;93022.25;4840988;29;20449;-77
2021/09/08 20:29:47;;;;;;;5.88;3.00;;;;;;;16.05;61.53;93025.34;4836134;29;20053;-77
2021/09/08 20:32:12;;;;;;;5.18;3.15;;;;;;;16.07;62.12;93023.19;4838144;29;20046;-77
2021/09/08 20:34:38;;;;;;;8.27;3.30;;;;;;;16.07;61.57;93023.19;4823614;29;20068;-77
2021/09/08 20:37:04;;;;;;;6.07;3.17;;;;;;;16.08;61.41;93020.25;4824172;29;20519;-77
2021/09/08 20:39:29;;;;;;;7.38;3.47;;;;;;;16.09;61.62;93026.31;4812306;29;20552;-76
2021/09/08 20:41:55;;;;;;;5.10;3.10;;;;;;;16.10;61.96;93022.56;4833566;29;20073;-77
2021/09/08 20:44:21;;;;;;;5.93;3.10;;;;;;;16.10;62.34;93027.84;4836249;29;20042;-77
2021/09/08 20:46:47;;;;;;;3.65;2.45;;;;;;;16.09;62.45;93028.94;4840530;29;20420;-77
2021/09/08 20:49:14;;;;;;;6.03;3.42;;;;;;;16.09;62.47;93029.72;4838357;29;20501;-77
2021/09/08 20:51:39;;;;;;;6.75;3.38;;;;;;;16.10;62.47;93033.13;4839560;29;20073;-77
2021/09/08 20:54:06;;;;;;;8.00;3.88;;;;;;;16.12;62.50;93031.75;4839601;29;20599;-76
2021/09/08 20:56:34;;;;;;;5.18;3.00;;;;;;;16.12;62.64;93029.13;4841169;29;20050;-77
2021/09/08 20:59:00;;;;;;;9.63;3.60;;;;;;;16.14;62.61;93032.22;4837612;29;20519;-77
2021/09/08 21:44:45;;;;;;;5.65;3.03;;;;;;;16.24;63.49;93036.44;4781768;30;20051;-92
2021/09/08 21:47:47;;;;;;;4.50;2.75;;;;;;;15.96;63.42;93002.38;4753922;29;20059;-93
2021/09/08 21:58:49;;;;;;;7.03;3.35;;;;;;;16.15;63.51;93027.72;4716393;30;20566;-91
2021/09/08 22:17:45;;;;;;;;;;;;;;;;;;;;;
2021/09/08 22:56:08;;;;;;;5.38;3.00;;;;;;;16.20;63.99;93032.84;4869039;29;20144;-92
2021/09/08 22:58:37;;;;;;;4.55;2.90;;;;;;;16.18;64.00;93041.06;4860680;29;20041;-92
2021/09/08 23:01:03;;;;;;;5.47;3.20;;;;;;;15.87;63.84;92990.97;4860270;29;20046;-91
2021/09/08 23:03:30;;;;;;;7.32;3.00;;;;;;;16.20;64.46;93038.13;4860289;29;20404;-91
2021/09/08 23:06:00;;;;;;;4.78;2.72;;;;;;;16.11;64.23;93016.22;4860730;29;20040;-90
2021/09/08 23:28:34;;;;;;;4.88;3.08;;;;;;;15.94;64.45;93020.38;4810634;29;20427;-91
2021/09/08 23:39:28;;;;;;;;;;;;;;;16.03;64.55;93034.38;4842127;29;20049;-93
2021/09/08 23:43:12;;;;;;;4.85;2.75;;;;;;;16.01;64.57;93033.91;4804630;29;19931;-92
2021/09/08 23:58:55;;;;;;;4.35;2.78;;;;;;;15.66;64.14;92989.94;4684209;30;20120;-91
